createdAt,value
2023-05-25T00:01:06.006Z,55.78
2023-05-25T00:03:33.864Z,56.04
2023-05-25T00:06:01.761Z,56.05
2023-05-25T00:08:29.451Z,56.14
2023-05-25T00:10:57.044Z,56.21
2023-05-25T00:13:24.642Z,56.21
2023-05-25T00:15:51.877Z,56.15
2023-05-25T00:18:19.485Z,56.11
2023-05-25T00:20:47.651Z,56.16
2023-05-25T00:23:15.180Z,55.91
2023-05-25T00:25:43.069Z,55.92
2023-05-25T00:28:11.087Z,55.85
2023-05-25T00:30:38.450Z,56.17
2023-05-25T00:33:06.909Z,56.22
2023-05-25T00:35:34.211Z,56.07
2023-05-25T00:38:01.423Z,56.16
2023-05-25T00:40:28.949Z,56.10
2023-05-25T00:42:56.265Z,56.25
2023-05-25T00:45:23.652Z,56.62
2023-05-25T00:47:54.243Z,56.66
2023-05-25T00:50:23.224Z,56.75
2023-05-25T00:52:51.683Z,56.96
2023-05-25T00:55:18.983Z,56.88
2023-05-25T00:57:46.254Z,56.79
2023-05-25T01:00:14.158Z,57.09
2023-05-25T01:02:42.566Z,57.05
2023-05-25T01:05:09.899Z,56.94
2023-05-25T01:07:37.720Z,56.90
2023-05-25T01:10:08.177Z,57.20
2023-05-25T01:12:36.673Z,57.25
2023-05-25T01:15:04.802Z,57.38
2023-05-25T01:17:32.512Z,57.48
2023-05-25T01:20:09.575Z,57.58
2023-05-25T01:22:40.480Z,57.50
2023-05-25T01:25:09.639Z,57.31
2023-05-25T01:27:38.471Z,57.65
2023-05-25T01:30:07.015Z,57.50
2023-05-25T01:32:35.376Z,57.41
2023-05-25T01:35:03.575Z,57.66
2023-05-25T01:37:32.116Z,57.74
2023-05-25T01:39:59.364Z,57.94
2023-05-25T01:42:26.544Z,57.87
2023-05-25T01:44:54.112Z,57.68
2023-05-25T01:47:21.591Z,57.58
2023-05-25T01:49:55.016Z,57.87
2023-05-25T01:52:22.955Z,57.53
2023-05-25T01:54:55.212Z,57.64
2023-05-25T01:57:24.374Z,57.89
2023-05-25T01:59:51.749Z,57.67
2023-05-25T02:02:19.121Z,58.05
2023-05-25T02:04:46.837Z,58.17
2023-05-25T02:07:14.273Z,58.26
2023-05-25T02:09:41.506Z,58.31
2023-05-25T02:12:09.261Z,58.63
2023-05-25T02:14:36.499Z,58.56
2023-05-25T02:17:04.011Z,58.98
2023-05-25T02:19:31.602Z,58.86
2023-05-25T02:21:58.818Z,58.78
2023-05-25T02:24:26.054Z,58.61
2023-05-25T02:26:53.592Z,58.46
2023-05-25T02:29:21.015Z,58.70
2023-05-25T02:31:48.278Z,59.02
2023-05-25T02:34:16.306Z,58.85
2023-05-25T02:36:43.988Z,58.67
2023-05-25T02:39:11.402Z,58.80
2023-05-25T02:41:39.053Z,59.06
2023-05-25T02:44:07.358Z,59.03
2023-05-25T02:46:34.775Z,58.99
2023-05-25T02:49:02.334Z,59.20
2023-05-25T02:51:29.670Z,59.14
2023-05-25T02:53:57.055Z,59.45
2023-05-25T02:56:24.610Z,59.74
2023-05-25T02:58:51.877Z,59.49
2023-05-25T03:01:19.607Z,59.77
2023-05-25T03:03:47.611Z,59.37
2023-05-25T03:06:14.872Z,59.69
2023-05-25T03:08:43.563Z,59.79
2023-05-25T03:11:11.064Z,59.67
2023-05-25T03:13:39.259Z,59.52
2023-05-25T03:16:06.633Z,59.74
2023-05-25T03:18:34.756Z,59.83
2023-05-25T03:21:01.974Z,60.02
2023-05-25T03:23:32.096Z,60.01
2023-05-25T03:26:03.671Z,60.13
2023-05-25T03:28:31.035Z,60.29
2023-05-25T03:30:58.346Z,60.15
2023-05-25T03:33:28.392Z,59.93
2023-05-25T03:35:55.773Z,59.83
2023-05-25T03:38:23.670Z,59.69
2023-05-25T03:40:51.156Z,59.46
2023-05-25T03:43:18.405Z,59.94
2023-05-25T03:45:46.098Z,59.65
2023-05-25T03:48:13.742Z,59.77
2023-05-25T03:50:41.820Z,59.52
2023-05-25T03:53:09.563Z,59.23
2023-05-25T03:55:37.011Z,59.20
2023-05-25T03:58:04.182Z,59.13
2023-05-25T04:00:31.392Z,58.97
2023-05-25T04:02:59.173Z,58.87
2023-05-25T04:05:26.657Z,58.69
2023-05-25T04:07:53.927Z,58.91
2023-05-25T04:10:21.518Z,58.88
2023-05-25T04:12:48.690Z,58.85
2023-05-25T04:15:17.150Z,58.40
2023-05-25T04:17:45.164Z,58.36
2023-05-25T04:20:12.479Z,59.29
2023-05-25T04:22:40.044Z,58.69
2023-05-25T04:25:08.374Z,57.97
2023-05-25T04:27:35.760Z,57.74
2023-05-25T04:30:04.427Z,57.05
2023-05-25T04:32:37.189Z,56.66
2023-05-25T04:35:05.955Z,56.29
2023-05-25T04:37:36.967Z,56.03
2023-05-25T04:40:22.965Z,56.04
2023-05-25T04:42:53.997Z,55.82
2023-05-25T04:45:21.599Z,55.51
2023-05-25T04:47:49.898Z,55.68
2023-05-25T04:50:17.651Z,55.12
2023-05-25T04:52:45.182Z,54.75
2023-05-25T04:55:12.567Z,54.98
2023-05-25T04:57:40.255Z,55.14
2023-05-25T05:00:09.899Z,54.56
2023-05-25T05:02:38.045Z,54.64
2023-05-25T05:05:06.624Z,54.28
2023-05-25T05:07:34.081Z,53.79
2023-05-25T05:10:01.709Z,53.86
2023-05-25T05:12:29.726Z,53.37
2023-05-25T05:14:57.543Z,53.98
2023-05-25T05:17:26.429Z,53.44
2023-05-25T05:19:54.270Z,53.77
2023-05-25T05:22:21.573Z,52.73
2023-05-25T05:24:48.961Z,53.45
2023-05-25T05:27:17.134Z,53.40
2023-05-25T05:29:44.786Z,53.12
2023-05-25T05:32:12.488Z,52.94
2023-05-25T05:34:40.077Z,53.19
2023-05-25T05:37:07.612Z,53.05
2023-05-25T05:39:36.247Z,53.46
2023-05-25T05:42:05.062Z,53.02
2023-05-25T05:44:32.331Z,52.77
2023-05-25T05:47:02.286Z,53.33
2023-05-25T05:49:30.478Z,53.23
2023-05-25T05:51:58.145Z,53.21
2023-05-25T05:54:27.729Z,53.25
2023-05-25T05:56:55.429Z,53.59
2023-05-25T05:59:22.730Z,53.29
2023-05-25T06:01:50.225Z,53.17
2023-05-25T06:04:18.672Z,53.23
2023-05-25T06:06:46.212Z,53.35
2023-05-25T06:09:13.761Z,53.47
2023-05-25T06:11:41.379Z,53.72
2023-05-25T06:14:08.714Z,53.01
2023-05-25T06:16:36.701Z,52.92
2023-05-25T06:19:04.565Z,53.42
2023-05-25T06:21:31.772Z,52.97
2023-05-25T06:23:59.036Z,52.56
2023-05-25T06:26:27.318Z,52.82
2023-05-25T06:28:55.074Z,52.01
2023-05-25T06:31:22.395Z,51.81
2023-05-25T06:33:49.950Z,51.36
2023-05-25T06:36:17.396Z,51.01
2023-05-25T06:38:45.182Z,50.39
2023-05-25T06:41:15.259Z,50.52
2023-05-25T06:43:43.034Z,51.33
2023-05-25T06:46:11.530Z,50.02
2023-05-25T06:48:39.187Z,50.07
2023-05-25T06:51:06.468Z,50.30
2023-05-25T06:53:33.692Z,49.55
2023-05-25T06:56:01.208Z,48.63
2023-05-25T06:58:28.420Z,48.58
2023-05-25T07:00:55.710Z,48.79
2023-05-25T07:03:23.226Z,49.26
2023-05-25T07:05:50.482Z,48.70
2023-05-25T07:08:17.757Z,48.87
2023-05-25T07:10:45.394Z,48.20
2023-05-25T07:13:13.658Z,48.20
2023-05-25T07:15:41.053Z,48.24
2023-05-25T07:18:12.520Z,47.92
2023-05-25T07:20:42.307Z,48.14
2023-05-25T07:23:10.659Z,47.97
2023-05-25T07:25:38.133Z,47.21
2023-05-25T07:28:05.361Z,46.69
2023-05-25T07:30:33.038Z,46.95
2023-05-25T07:33:01.032Z,46.71
2023-05-25T07:35:28.299Z,47.25
2023-05-25T07:37:56.461Z,47.43
2023-05-25T07:40:23.722Z,46.78
2023-05-25T07:42:51.453Z,47.01
2023-05-25T07:45:18.950Z,46.22
2023-05-25T07:47:46.224Z,45.88
2023-05-25T07:50:13.944Z,46.61
2023-05-25T07:52:41.827Z,46.53
2023-05-25T07:55:09.311Z,46.52
2023-05-25T07:57:36.672Z,45.43
2023-05-25T08:00:08.279Z,46.67
2023-05-25T08:02:40.323Z,45.50
2023-05-25T08:05:08.282Z,45.84
2023-05-25T08:07:35.878Z,44.88
2023-05-25T08:10:03.433Z,45.13
2023-05-25T08:12:46.851Z,44.24
2023-05-25T08:15:16.607Z,45.33
2023-05-25T08:17:44.547Z,45.24
2023-05-25T08:20:12.458Z,45.35
2023-05-25T08:22:39.873Z,46.00
2023-05-25T08:25:08.149Z,44.35
2023-05-25T08:27:36.195Z,45.59
2023-05-25T08:30:05.838Z,45.61
2023-05-25T08:32:33.515Z,43.82
2023-05-25T08:35:01.912Z,43.91
2023-05-25T08:37:29.434Z,44.55
2023-05-25T08:39:56.941Z,44.27
2023-05-25T08:42:24.431Z,45.23
2023-05-25T08:44:51.605Z,44.44
2023-05-25T08:47:20.519Z,44.45
2023-05-25T08:49:48.702Z,42.74
2023-05-25T08:52:16.213Z,43.85
2023-05-25T08:54:44.240Z,42.98
2023-05-25T08:57:20.935Z,44.05
2023-05-25T08:59:51.616Z,42.52
2023-05-25T09:02:21.709Z,42.65
2023-05-25T09:04:49.363Z,42.74
2023-05-25T09:07:16.686Z,41.70
2023-05-25T09:09:44.176Z,41.10
2023-05-25T09:12:11.761Z,41.49
2023-05-25T09:14:45.608Z,43.46
2023-05-25T09:17:16.932Z,42.95
2023-05-25T09:19:44.382Z,42.30
2023-05-25T09:22:15.963Z,42.06
2023-05-25T09:24:45.271Z,41.79
2023-05-25T09:27:13.800Z,41.22
2023-05-25T09:29:41.591Z,41.59
2023-05-25T09:32:09.217Z,40.34
2023-05-25T09:34:36.555Z,40.41
2023-05-25T09:37:04.420Z,40.31
2023-05-25T09:39:32.318Z,40.71
2023-05-25T09:41:59.599Z,40.01
2023-05-25T09:44:26.970Z,39.95
2023-05-25T09:46:54.458Z,40.06
2023-05-25T09:49:21.719Z,41.24
2023-05-25T09:51:49.328Z,40.29
2023-05-25T09:54:16.877Z,39.10
2023-05-25T09:56:44.140Z,40.42
2023-05-25T09:59:11.798Z,41.19
2023-05-25T10:01:40.163Z,41.17
2023-05-25T10:04:09.261Z,40.54
2023-05-25T10:06:37.389Z,41.38
2023-05-25T10:09:04.934Z,40.57
2023-05-25T10:11:32.583Z,40.40
2023-05-25T10:14:03.806Z,40.40
2023-05-25T10:16:31.221Z,40.59
2023-05-25T10:19:01.698Z,40.99
2023-05-25T10:21:29.472Z,42.64
2023-05-25T10:24:01.082Z,41.77
2023-05-25T10:26:28.707Z,41.88
2023-05-25T10:28:56.829Z,41.68
2023-05-25T10:31:28.196Z,40.28
2023-05-25T10:33:56.268Z,40.98
2023-05-25T10:36:23.541Z,40.52
2023-05-25T10:38:51.168Z,39.30
2023-05-25T10:41:20.301Z,40.07
2023-05-25T10:43:47.817Z,39.89
2023-05-25T10:46:15.258Z,40.51
2023-05-25T10:48:46.663Z,40.28
2023-05-25T10:51:14.338Z,39.81
2023-05-25T10:53:45.963Z,39.86
2023-05-25T10:56:14.357Z,38.40
2023-05-25T10:58:46.398Z,39.79
2023-05-25T11:01:15.155Z,40.41
2023-05-25T11:03:58.193Z,39.00
2023-05-25T11:06:40.261Z,38.86
2023-05-25T11:09:07.763Z,39.17
2023-05-25T11:11:47.370Z,40.07
2023-05-25T11:14:21.093Z,40.00
2023-05-25T11:17:04.194Z,39.42
2023-05-25T11:19:44.554Z,38.78
2023-05-25T11:22:16.033Z,38.43
2023-05-25T11:24:45.157Z,38.98
2023-05-25T11:27:12.673Z,38.34
2023-05-25T11:29:40.952Z,38.27
2023-05-25T11:32:14.405Z,38.61
2023-05-25T11:34:46.559Z,39.35
2023-05-25T11:37:16.152Z,38.62
2023-05-25T11:39:46.719Z,38.35
2023-05-25T11:42:13.903Z,38.23
2023-05-25T11:44:41.465Z,38.29
2023-05-25T11:47:13.277Z,37.96
2023-05-25T11:49:42.073Z,39.19
2023-05-25T11:52:10.308Z,39.46
2023-05-25T11:54:39.919Z,39.31
2023-05-25T11:57:14.135Z,38.85
2023-05-25T11:59:41.813Z,38.05
2023-05-25T12:02:09.067Z,38.49
2023-05-25T12:04:37.061Z,37.59
2023-05-25T12:07:04.976Z,38.26
2023-05-25T12:09:32.501Z,39.20
2023-05-25T12:12:00.770Z,39.22
2023-05-25T12:14:28.032Z,38.88
2023-05-25T12:16:55.406Z,39.79
2023-05-25T12:19:23.456Z,38.59
2023-05-25T12:21:51.774Z,36.60
2023-05-25T12:24:19.261Z,37.40
2023-05-25T12:26:47.415Z,38.67
2023-05-25T12:29:14.813Z,37.96
2023-05-25T12:31:42.110Z,37.92
2023-05-25T12:34:14.133Z,37.84
2023-05-25T12:36:44.583Z,36.94
2023-05-25T12:39:13.243Z,36.39
2023-05-25T12:41:44.582Z,37.19
2023-05-25T12:44:21.480Z,38.09
2023-05-25T12:46:49.564Z,37.39
2023-05-25T12:49:30.532Z,36.64
2023-05-25T12:51:58.346Z,36.93
2023-05-25T12:54:35.823Z,37.04
2023-05-25T12:57:03.965Z,37.39
2023-05-25T12:59:31.603Z,38.01
2023-05-25T13:01:58.850Z,37.52
2023-05-25T13:04:26.252Z,37.40
2023-05-25T13:06:54.139Z,38.68
2023-05-25T13:09:23.623Z,37.85
2023-05-25T13:11:50.884Z,38.02
2023-05-25T13:14:18.386Z,36.29
2023-05-25T13:16:46.280Z,36.72
2023-05-25T13:19:13.639Z,37.48
2023-05-25T13:21:41.092Z,37.23
2023-05-25T13:24:08.671Z,35.61
2023-05-25T13:26:36.217Z,36.62
2023-05-25T13:29:03.746Z,37.37
2023-05-25T13:31:31.068Z,37.01
2023-05-25T13:33:59.046Z,38.15
2023-05-25T13:36:26.542Z,38.48
2023-05-25T13:38:53.916Z,38.20
2023-05-25T13:41:21.244Z,38.94
2023-05-25T13:43:48.836Z,38.26
2023-05-25T13:46:30.057Z,37.57
2023-05-25T13:49:01.550Z,38.43
2023-05-25T13:51:28.838Z,37.79
2023-05-25T13:53:56.085Z,38.02
2023-05-25T13:56:23.925Z,38.64
2023-05-25T13:58:51.933Z,38.88
2023-05-25T14:01:19.338Z,38.14
2023-05-25T14:03:47.086Z,37.84
2023-05-25T14:06:14.754Z,38.04
2023-05-25T14:08:41.928Z,36.32
2023-05-25T14:11:09.823Z,37.25
2023-05-25T14:13:37.072Z,37.41
2023-05-25T14:16:04.392Z,37.23
2023-05-25T14:18:31.970Z,38.46
2023-05-25T14:20:59.660Z,37.36
2023-05-25T14:23:26.956Z,37.95
2023-05-25T14:25:54.521Z,38.09
2023-05-25T14:28:21.802Z,38.30
2023-05-25T14:30:49.307Z,38.41
2023-05-25T14:33:17.343Z,37.92
2023-05-25T14:35:44.889Z,37.44
2023-05-25T14:38:12.290Z,37.75
2023-05-25T14:40:39.788Z,37.83
2023-05-25T14:43:07.189Z,37.92
2023-05-25T14:45:34.383Z,38.62
2023-05-25T14:48:15.463Z,38.25
2023-05-25T14:50:44.896Z,38.89
2023-05-25T14:53:12.433Z,39.01
2023-05-25T14:55:40.887Z,39.68
2023-05-25T14:58:08.174Z,39.51
2023-05-25T15:00:35.830Z,39.51
2023-05-25T15:03:03.165Z,39.88
2023-05-25T15:05:30.994Z,38.86
2023-05-25T15:07:59.053Z,38.93
2023-05-25T15:10:27.058Z,39.07
2023-05-25T15:12:54.276Z,39.08
2023-05-25T15:15:21.746Z,39.85
2023-05-25T15:17:49.007Z,40.46
2023-05-25T15:20:16.355Z,39.74
2023-05-25T15:22:44.549Z,39.80
2023-05-25T15:25:13.604Z,39.58
2023-05-25T15:27:42.525Z,39.58
2023-05-25T15:30:10.302Z,39.82
2023-05-25T15:32:37.539Z,40.10
2023-05-25T15:35:04.906Z,40.11
2023-05-25T15:37:32.413Z,39.66
2023-05-25T15:39:59.873Z,39.51
2023-05-25T15:42:27.097Z,40.22
2023-05-25T15:44:54.618Z,39.84
2023-05-25T15:47:22.057Z,40.88
2023-05-25T15:49:49.377Z,40.76
2023-05-25T15:52:17.202Z,41.29
2023-05-25T15:54:44.371Z,41.13
2023-05-25T15:57:11.562Z,41.55
2023-05-25T15:59:39.053Z,41.74
2023-05-25T16:02:06.676Z,41.24
2023-05-25T16:32:27.658Z,47.75
2023-05-25T16:34:55.820Z,47.75
2023-05-25T16:37:23.543Z,46.91
2023-05-25T16:39:51.038Z,46.43
2023-05-25T16:42:18.799Z,45.29
2023-05-25T16:44:46.254Z,45.51
2023-05-25T16:47:13.839Z,44.93
2023-05-25T16:49:41.570Z,44.33
2023-05-25T16:52:10.023Z,44.55
2023-05-25T16:54:37.601Z,44.19
2023-05-25T16:57:06.927Z,43.84
2023-05-25T16:59:34.387Z,43.26
2023-05-25T17:02:02.145Z,44.25
2023-05-25T17:04:29.978Z,43.90
2023-05-25T17:06:57.385Z,43.79
2023-05-25T17:09:25.312Z,43.83
2023-05-25T17:11:53.820Z,44.30
2023-05-25T17:14:21.590Z,44.13
2023-05-25T17:16:49.392Z,44.25
2023-05-25T17:19:17.210Z,44.44
2023-05-25T17:21:44.771Z,44.33
2023-05-25T17:24:12.222Z,44.01
2023-05-25T17:26:40.036Z,44.39
2023-05-25T17:29:07.555Z,44.45
2023-05-25T17:31:35.116Z,44.63
2023-05-25T17:34:03.168Z,44.82
2023-05-25T17:36:30.851Z,44.60
2023-05-25T17:38:58.384Z,44.91
2023-05-25T17:41:26.426Z,45.09
2023-05-25T17:43:53.924Z,45.49
2023-05-25T17:46:21.928Z,45.57
2023-05-25T17:48:49.648Z,45.93
2023-05-25T17:51:18.376Z,46.12
2023-05-25T17:53:45.766Z,46.17
2023-05-25T17:56:13.470Z,46.06
2023-05-25T17:58:47.112Z,45.65
2023-05-25T18:01:15.710Z,45.96
2023-05-25T18:03:43.754Z,46.16
2023-05-25T18:06:11.272Z,45.91
2023-05-25T18:08:38.706Z,46.11
2023-05-25T18:11:06.587Z,46.30
2023-05-25T18:13:34.021Z,45.98
2023-05-25T18:16:01.459Z,46.34
2023-05-25T18:18:29.324Z,46.35
2023-05-25T18:20:56.808Z,46.15
2023-05-25T18:23:24.287Z,46.68
2023-05-25T18:25:52.679Z,46.80
2023-05-25T18:28:20.149Z,46.81
2023-05-25T18:30:47.664Z,46.91
2023-05-25T18:33:16.376Z,47.11
2023-05-25T18:35:44.071Z,47.18
2023-05-25T18:38:12.103Z,47.28
2023-05-25T18:40:39.810Z,47.49
2023-05-25T18:43:07.868Z,47.84
2023-05-25T18:45:35.336Z,48.37
2023-05-25T18:48:09.028Z,48.48
2023-05-25T18:50:37.668Z,48.50
2023-05-25T18:53:07.687Z,48.52
2023-05-25T18:55:35.142Z,48.67
2023-05-25T18:58:02.635Z,48.65
2023-05-25T19:00:30.679Z,48.81
2023-05-25T19:02:58.245Z,49.04
2023-05-25T19:05:25.963Z,49.07
2023-05-25T19:07:59.099Z,49.28
2023-05-25T19:10:27.606Z,49.21
2023-05-25T19:12:55.393Z,49.48
2023-05-25T19:15:23.920Z,49.69
2023-05-25T19:17:51.406Z,49.51
2023-05-25T19:20:19.274Z,49.64
2023-05-25T19:22:47.141Z,50.12
2023-05-25T19:25:14.841Z,50.17
2023-05-25T19:27:42.620Z,50.28
2023-05-25T19:30:10.401Z,50.47
2023-05-25T19:32:37.906Z,50.85
2023-05-25T19:35:05.858Z,51.06
2023-05-25T19:37:33.294Z,51.29
2023-05-25T19:40:00.838Z,51.22
2023-05-25T19:42:31.099Z,51.55
2023-05-25T19:44:59.799Z,51.55
2023-05-25T19:47:27.363Z,51.61
2023-05-25T19:49:55.178Z,51.78
2023-05-25T19:52:22.679Z,51.87
2023-05-25T19:54:51.288Z,52.03
2023-05-25T19:57:20.117Z,52.27
2023-05-25T19:59:47.628Z,52.08
2023-05-25T20:02:15.107Z,51.89
2023-05-25T20:04:42.898Z,52.13
2023-05-25T20:07:10.425Z,51.96
2023-05-25T20:09:38.913Z,52.33
2023-05-25T20:12:07.230Z,52.41
2023-05-25T20:14:34.748Z,52.39
2023-05-25T20:17:02.233Z,52.49
2023-05-25T20:19:30.063Z,52.43
2023-05-25T20:21:59.565Z,52.48
2023-05-25T20:24:27.038Z,52.38
2023-05-25T20:26:56.803Z,52.05
2023-05-25T20:29:24.484Z,52.40
2023-05-25T20:31:52.610Z,52.36
2023-05-25T20:34:20.736Z,52.38
2023-05-25T20:36:48.280Z,51.92
2023-05-25T20:39:16.112Z,52.25
2023-05-25T20:41:44.065Z,52.22
2023-05-25T20:44:11.542Z,52.23
2023-05-25T20:46:38.978Z,52.55
2023-05-25T20:49:06.797Z,52.60
2023-05-25T20:51:34.736Z,52.24
2023-05-25T20:54:02.431Z,52.21
2023-05-25T20:56:30.237Z,52.43
2023-05-25T20:58:57.732Z,52.18
2023-05-25T21:01:25.485Z,52.17
2023-05-25T21:03:53.529Z,52.05
2023-05-25T21:06:21.127Z,51.98
2023-05-25T21:08:48.560Z,52.26
2023-05-25T21:11:16.521Z,52.31
2023-05-25T21:13:43.963Z,52.20
2023-05-25T21:16:11.825Z,52.21
2023-05-25T21:18:39.608Z,52.65
2023-05-25T21:21:07.095Z,52.69
2023-05-25T21:23:34.783Z,52.61
2023-05-25T21:26:02.908Z,52.67
2023-05-25T21:28:30.539Z,52.86
2023-05-25T21:30:57.981Z,52.77
2023-05-25T21:33:25.946Z,52.57
2023-05-25T21:35:53.386Z,53.01
2023-05-25T21:38:20.797Z,52.97
2023-05-25T21:40:48.505Z,52.97
2023-05-25T21:43:15.946Z,52.70
2023-05-25T21:45:43.724Z,52.75
2023-05-25T21:48:11.700Z,52.70
2023-05-25T21:50:39.886Z,52.72
2023-05-25T21:53:07.322Z,52.84
2023-05-25T21:55:35.164Z,52.55
2023-05-25T21:58:02.562Z,52.79
2023-05-25T22:00:30.288Z,52.84
2023-05-25T22:02:58.220Z,52.99
2023-05-25T22:05:25.951Z,52.64
2023-05-25T22:07:55.029Z,53.13
2023-05-25T22:10:23.483Z,52.78
2023-05-25T22:12:51.220Z,52.94
2023-05-25T22:15:18.646Z,52.66
2023-05-25T22:17:46.492Z,52.89
2023-05-25T22:20:14.233Z,53.25
2023-05-25T22:22:42.348Z,53.30
2023-05-25T22:25:10.639Z,53.12
2023-05-25T22:27:38.601Z,53.23
2023-05-25T22:30:07.004Z,53.61
2023-05-25T22:32:35.190Z,53.58
2023-05-25T22:35:02.847Z,53.37
2023-05-25T22:37:30.342Z,53.86
2023-05-25T22:39:58.066Z,53.76
2023-05-25T22:42:25.680Z,53.66
2023-05-25T22:44:53.152Z,53.91
2023-05-25T22:47:20.936Z,53.96
2023-05-25T22:49:48.405Z,53.90
2023-05-25T22:52:16.120Z,54.02
2023-05-25T22:54:43.880Z,54.04
2023-05-25T22:57:11.345Z,54.34
2023-05-25T22:59:38.812Z,54.39
2023-05-25T23:02:07.441Z,54.21
2023-05-25T23:04:38.104Z,54.52
2023-05-25T23:07:05.768Z,54.54
2023-05-25T23:09:33.465Z,54.39
2023-05-25T23:12:01.740Z,54.56
2023-05-25T23:14:30.510Z,54.54
2023-05-25T23:16:58.036Z,54.54
2023-05-25T23:19:25.804Z,54.33
2023-05-25T23:21:54.367Z,54.34
2023-05-25T23:24:21.831Z,54.41
2023-05-25T23:26:49.570Z,54.56
2023-05-25T23:29:17.338Z,54.67
2023-05-25T23:31:44.824Z,54.80
2023-05-25T23:34:12.311Z,54.85
2023-05-25T23:36:40.689Z,54.99
2023-05-25T23:39:08.182Z,55.19
2023-05-25T23:41:35.641Z,55.47
2023-05-25T23:44:03.323Z,55.40
2023-05-25T23:46:31.848Z,55.69
2023-05-25T23:48:59.351Z,55.80
2023-05-25T23:51:27.330Z,56.03
2023-05-25T23:53:54.755Z,56.12
2023-05-25T23:56:22.261Z,56.38
2023-05-25T23:58:50.012Z,56.21
